Time;durP1;ratioP1;P1;durP2;ratioP2;P2;SDS_P1;SDS_P2;PMS_P1;PMS_P2;Temp;Humidity;BMP_temperature;BMP_pressure;BME280_temperature;BME280_humidity;BME280_pressure;Samples;Min_cycle;Max_cycle;Signal;HPM_P1;HPM_P2
2022/07/01 00:02:21;;;;;;;2.25;1.10;;;23.80;66.20;;;;;;5021685;28;20049;-71
2022/07/01 00:04:47;;;;;;;1.80;1.00;;;23.70;66.40;;;;;;5022484;28;20021;-71
2022/07/01 00:07:13;;;;;;;3.55;1.15;;;23.70;66.70;;;;;;5023195;28;20514;-72
2022/07/01 00:09:39;;;;;;;2.67;1.17;;;23.60;66.60;;;;;;5021286;28;20476;-72
2022/07/01 00:12:05;;;;;;;3.47;1.35;;;23.60;67.30;;;;;;5022703;28;20080;-70
2022/07/01 00:14:31;;;;;;;3.47;1.13;;;23.60;68.30;;;;;;5021513;28;20483;-71
2022/07/01 00:16:57;;;;;;;2.60;1.27;;;23.60;68.50;;;;;;5020015;28;20034;-72
2022/07/01 00:19:24;;;;;;;2.20;1.15;;;23.60;67.80;;;;;;5018741;28;20427;-69
2022/07/01 00:21:50;;;;;;;2.13;1.10;;;23.60;67.50;;;;;;5021802;28;20025;-71
2022/07/01 00:24:16;;;;;;;2.15;0.90;;;23.60;67.80;;;;;;5021705;28;20041;-69
2022/07/01 00:26:42;;;;;;;2.22;1.30;;;23.60;68.20;;;;;;5020461;28;20025;-70
2022/07/01 00:29:08;;;;;;;1.80;1.20;;;23.60;67.70;;;;;;5021770;28;20065;-70
2022/07/01 00:31:35;;;;;;;1.23;1.08;;;23.60;68.50;;;;;;5022514;28;20064;-72
2022/07/01 00:34:01;;;;;;;2.47;0.93;;;23.60;68.90;;;;;;5023703;28;20053;-70
2022/07/01 00:36:27;;;;;;;3.60;1.05;;;23.60;68.60;;;;;;5021063;28;20014;-72
2022/07/01 00:38:53;;;;;;;2.22;0.93;;;23.60;68.60;;;;;;5022866;28;20067;-72
2022/07/01 00:41:18;;;;;;;3.67;1.00;;;23.60;69.00;;;;;;5021803;28;20034;-71
2022/07/01 00:43:44;;;;;;;1.00;0.80;;;23.60;69.10;;;;;;5020038;28;20025;-69
2022/07/01 00:46:10;;;;;;;1.85;0.98;;;23.60;69.00;;;;;;5021396;28;20080;-71
2022/07/01 00:48:37;;;;;;;1.40;1.02;;;23.50;69.10;;;;;;5021406;28;20033;-69
2022/07/01 00:51:03;;;;;;;2.88;1.23;;;23.50;69.50;;;;;;5020082;28;20026;-71
2022/07/01 00:53:31;;;;;;;5.68;1.40;;;23.50;69.00;;;;;;5022740;28;20108;-70
2022/07/01 00:55:57;;;;;;;1.92;1.20;;;23.50;69.10;;;;;;5021463;28;20029;-71
2022/07/01 00:58:28;;;;;;;8.55;1.33;;;23.40;69.40;;;;;;5021282;28;20028;-72
2022/07/01 01:00:55;;;;;;;6.18;1.30;;;23.40;68.90;;;;;;5022695;28;20018;-70
2022/07/01 01:03:21;;;;;;;4.30;1.10;;;23.40;68.80;;;;;;5021556;28;20468;-70
2022/07/01 01:05:48;;;;;;;2.03;1.10;;;23.40;69.60;;;;;;5020610;28;20022;-71
2022/07/01 01:08:15;;;;;;;4.38;1.30;;;23.40;69.80;;;;;;5020987;28;20462;-70
2022/07/01 01:10:42;;;;;;;2.10;1.27;;;23.40;69.90;;;;;;5020638;28;20498;-71
2022/07/01 01:13:09;;;;;;;5.50;1.40;;;23.40;70.00;;;;;;5025316;28;20104;-72
2022/07/01 01:15:35;;;;;;;5.43;1.40;;;23.30;69.10;;;;;;5024798;28;20471;-71
2022/07/01 01:18:02;;;;;;;1.35;1.00;;;23.30;68.90;;;;;;5025241;28;20025;-71
2022/07/01 01:20:32;;;;;;;1.67;0.90;;;23.30;69.40;;;;;;5024920;28;20495;-70
2022/07/01 01:22:58;;;;;;;1.73;1.10;;;23.20;69.90;;;;;;5023892;28;20018;-70
2022/07/01 01:25:24;;;;;;;3.50;1.20;;;23.30;70.10;;;;;;5023555;28;20108;-71
2022/07/01 01:27:50;;;;;;;1.27;1.00;;;23.20;70.30;;;;;;5026448;28;20021;-71
2022/07/01 01:30:16;;;;;;;1.80;1.10;;;23.20;70.20;;;;;;5025692;28;20036;-71
2022/07/01 01:32:42;;;;;;;14.55;1.02;;;23.20;70.10;;;;;;5024111;28;20041;-70
2022/07/01 01:35:10;;;;;;;3.25;1.23;;;23.20;70.10;;;;;;5024148;28;20029;-70
2022/07/01 01:37:36;;;;;;;3.17;1.17;;;23.20;70.20;;;;;;5025703;28;20054;-72
2022/07/01 01:40:02;;;;;;;6.22;1.10;;;23.10;70.30;;;;;;5023823;28;20018;-72
2022/07/01 01:42:28;;;;;;;1.45;0.93;;;23.10;70.40;;;;;;5022583;28;20030;-70
2022/07/01 01:44:54;;;;;;;3.47;1.38;;;23.10;71.20;;;;;;5024266;28;20041;-70
2022/07/01 01:47:20;;;;;;;1.67;1.05;;;23.00;70.50;;;;;;5024879;28;20444;-70
2022/07/01 01:49:46;;;;;;;1.80;1.13;;;23.00;70.60;;;;;;5024027;28;20037;-72
2022/07/01 01:52:12;;;;;;;3.00;1.30;;;23.00;70.70;;;;;;5025706;28;20025;-70
2022/07/01 01:54:38;;;;;;;4.07;1.15;;;23.00;70.80;;;;;;5024429;28;20037;-71
2022/07/01 01:57:04;;;;;;;2.05;1.30;;;23.00;70.80;;;;;;5022918;28;20031;-70
2022/07/01 01:59:30;;;;;;;0.90;0.90;;;22.90;70.90;;;;;;5024210;28;20116;-71
2022/07/01 02:01:56;;;;;;;2.80;1.05;;;22.90;71.80;;;;;;5024145;28;20033;-71
2022/07/01 02:04:25;;;;;;;1.42;1.10;;;22.90;71.10;;;;;;5024262;28;20021;-70
2022/07/01 02:06:52;;;;;;;8.40;1.52;;;22.90;71.30;;;;;;5025476;28;20033;-70
2022/07/01 02:09:18;;;;;;;1.77;1.35;;;22.80;71.10;;;;;;5022890;28;20113;-72
2022/07/01 02:11:43;;;;;;;1.95;1.38;;;22.80;71.20;;;;;;5023824;28;20148;-71
2022/07/01 02:14:09;;;;;;;1.30;1.20;;;22.80;71.30;;;;;;5024161;28;20021;-72
2022/07/01 02:16:35;;;;;;;3.15;1.45;;;22.70;71.50;;;;;;5023654;28;20030;-71
2022/07/01 02:19:01;;;;;;;5.88;1.48;;;22.70;71.70;;;;;;5024154;28;20021;-72
2022/07/01 02:21:28;;;;;;;3.65;1.40;;;22.70;71.40;;;;;;5023904;28;20022;-70
2022/07/01 02:23:54;;;;;;;3.92;1.60;;;22.70;71.40;;;;;;5024579;28;20029;-71
2022/07/01 02:26:20;;;;;;;3.58;1.35;;;22.60;71.20;;;;;;5022819;28;20022;-71
2022/07/01 02:28:46;;;;;;;2.80;1.40;;;22.60;71.10;;;;;;5023870;28;20113;-70
2022/07/01 02:31:12;;;;;;;2.92;1.65;;;22.60;70.70;;;;;;5024998;28;20108;-70
2022/07/01 02:33:38;;;;;;;5.45;1.63;;;22.50;70.90;;;;;;5023746;28;20428;-71
2022/07/01 02:36:04;;;;;;;2.70;1.50;;;22.50;71.40;;;;;;5022282;28;20026;-71
2022/07/01 02:38:30;;;;;;;3.13;1.30;;;22.50;71.40;;;;;;5024957;28;20025;-72
2022/07/01 02:40:55;;;;;;;2.78;1.27;;;22.40;71.70;;;;;;5023243;28;20468;-70
2022/07/01 02:43:21;;;;;;;1.60;1.30;;;22.40;72.00;;;;;;5023765;28;20502;-72
2022/07/01 02:45:47;;;;;;;2.17;1.60;;;22.40;72.00;;;;;;5024560;28;20046;-70
2022/07/01 02:48:13;;;;;;;1.95;1.33;;;22.30;72.10;;;;;;5022603;28;20430;-71
2022/07/01 02:50:39;;;;;;;2.63;1.45;;;22.30;72.10;;;;;;5023959;28;20063;-70
2022/07/01 02:53:04;;;;;;;7.10;1.77;;;22.30;72.10;;;;;;5024224;28;20022;-70
2022/07/01 02:55:30;;;;;;;1.77;1.45;;;22.30;72.00;;;;;;5022572;28;20021;-70
2022/07/01 02:57:57;;;;;;;2.80;1.52;;;22.30;72.30;;;;;;5024259;28;20104;-72
2022/07/01 03:00:24;;;;;;;1.75;0.98;;;22.30;72.60;;;;;;5023697;28;20014;-72
2022/07/01 03:02:50;;;;;;;1.40;1.08;;;22.30;72.70;;;;;;5022431;28;20018;-71
2022/07/01 03:05:16;;;;;;;2.20;1.38;;;22.30;72.40;;;;;;5024054;28;20021;-71
2022/07/01 03:07:42;;;;;;;1.42;1.02;;;22.20;72.30;;;;;;5023428;28;20037;-71
2022/07/01 03:10:09;;;;;;;3.25;1.80;;;22.20;72.60;;;;;;5021146;28;20028;-72
2022/07/01 03:12:35;;;;;;;2.28;1.50;;;22.20;72.70;;;;;;5022376;28;20447;-71
2022/07/01 03:15:05;;;;;;;3.28;1.30;;;22.20;72.90;;;;;;5023247;28;20056;-71
2022/07/01 03:17:34;;;;;;;4.63;1.40;;;22.20;73.00;;;;;;5024033;28;20029;-70
2022/07/01 03:20:01;;;;;;;1.52;1.08;;;22.20;72.90;;;;;;5022948;28;20022;-70
2022/07/01 03:22:29;;;;;;;1.33;1.23;;;22.20;73.10;;;;;;5022126;28;20010;-70
2022/07/01 03:24:55;;;;;;;3.47;1.40;;;22.20;73.30;;;;;;5024018;28;20010;-69
2022/07/01 03:27:22;;;;;;;1.38;1.20;;;22.20;73.40;;;;;;5024502;28;20471;-70
2022/07/01 03:29:48;;;;;;;2.10;1.10;;;22.20;73.40;;;;;;5022103;28;20056;-72
2022/07/01 03:32:14;;;;;;;2.33;1.33;;;22.20;73.40;;;;;;5021729;28;20483;-71
2022/07/01 03:34:42;;;;;;;2.70;1.23;;;22.30;73.40;;;;;;5021928;28;20057;-70
2022/07/01 03:37:10;;;;;;;7.97;1.83;;;22.30;73.00;;;;;;5023694;28;20022;-72
2022/07/01 03:39:38;;;;;;;2.08;1.17;;;22.30;73.30;;;;;;5022524;28;20386;-71
2022/07/01 03:42:05;;;;;;;2.92;1.55;;;22.30;73.40;;;;;;5022266;28;20017;-70
2022/07/01 03:44:32;;;;;;;1.83;1.10;;;22.30;73.40;;;;;;5023208;28;20053;-70
2022/07/01 03:46:58;;;;;;;6.78;1.52;;;22.40;73.30;;;;;;5022211;28;20022;-71
2022/07/01 03:49:24;;;;;;;2.45;1.27;;;22.40;72.80;;;;;;5020736;28;20032;-72
2022/07/01 03:51:51;;;;;;;1.40;1.15;;;22.40;73.00;;;;;;5023436;28;20096;-70
2022/07/01 03:54:29;;;;;;;2.83;1.52;;;22.40;72.30;;;;;;5021875;28;20022;-71
2022/07/01 03:57:13;;;;;;;1.17;1.08;;;22.40;73.10;;;;;;5088614;27;20782;-70
2022/07/01 03:59:40;;;;;;;7.35;1.40;;;22.40;72.30;;;;;;5078923;28;20025;-71
2022/07/01 04:02:06;;;;;;;3.28;1.65;;;22.50;72.50;;;;;;5079042;28;20021;-69
2022/07/01 04:04:34;;;;;;;3.33;1.30;;;22.50;72.90;;;;;;5076058;28;20020;-70
2022/07/01 04:07:03;;;;;;;1.90;1.40;;;22.60;72.60;;;;;;5078715;28;20081;-71
2022/07/01 04:09:30;;;;;;;2.78;1.55;;;22.60;72.50;;;;;;5079368;28;20085;-71
2022/07/01 04:11:57;;;;;;;3.03;1.60;;;22.60;72.50;;;;;;5076653;28;20043;-70
2022/07/01 04:14:26;;;;;;;3.95;1.58;;;22.60;72.10;;;;;;5078356;28;20068;-71
2022/07/01 04:16:53;;;;;;;4.53;1.90;;;22.60;71.70;;;;;;5077037;28;20032;-69
2022/07/01 04:19:18;;;;;;;2.72;2.03;;;22.70;71.90;;;;;;5078535;28;20016;-70
2022/07/01 04:24:32;;;;;;;3.70;1.50;;;22.70;72.00;;;;;;5076165;28;20039;-69
2022/07/01 04:26:59;;;;;;;2.40;1.52;;;22.80;71.80;;;;;;5078457;28;20474;-71
2022/07/01 04:29:24;;;;;;;2.42;1.70;;;22.80;71.30;;;;;;5078422;28;20032;-71
2022/07/01 04:31:50;;;;;;;4.18;1.63;;;22.80;71.70;;;;;;5076857;28;20020;-72
2022/07/01 04:34:16;;;;;;;2.33;1.65;;;22.80;72.30;;;;;;5078510;28;20103;-72
2022/07/01 04:36:42;;;;;;;4.60;1.77;;;22.90;71.70;;;;;;5076607;28;20028;-70
2022/07/01 04:39:08;;;;;;;1.38;1.25;;;22.90;71.90;;;;;;5075669;28;20031;-70
2022/07/01 04:44:19;;;;;;;3.75;1.80;;;23.00;72.40;;;;;;5078217;28;20063;-70
2022/07/01 04:46:44;;;;;;;1.75;1.48;;;23.00;72.20;;;;;;5076671;28;20132;-71
2022/07/01 04:49:10;;;;;;;1.67;1.58;;;23.10;72.30;;;;;;5076432;28;20111;-72
2022/07/01 04:51:36;;;;;;;3.50;1.73;;;23.20;72.70;;;;;;5078129;28;20027;-70
2022/07/01 04:54:06;;;;;;;2.90;1.70;;;23.30;72.80;;;;;;5076464;28;20048;-70
2022/07/01 04:56:33;;;;;;;4.43;1.65;;;23.40;72.60;;;;;;5076006;28;20041;-71
2022/07/01 04:59:00;;;;;;;3.28;1.52;;;23.40;72.10;;;;;;5076500;28;20060;-70
2022/07/01 05:01:26;;;;;;;3.15;2.30;;;23.60;72.50;;;;;;5078009;28;20091;-71
2022/07/01 05:03:52;;;;;;;3.53;1.70;;;23.60;71.60;;;;;;5076171;28;20028;-73
2022/07/01 05:06:18;;;;;;;10.00;2.85;;;23.70;70.40;;;;;;5076467;28;20126;-71
2022/07/01 05:08:44;;;;;;;10.88;2.38;;;23.80;71.10;;;;;;5062387;28;20104;-71
2022/07/01 05:11:10;;;;;;;8.15;2.53;;;23.80;70.70;;;;;;5061435;28;20037;-70
2022/07/01 05:13:36;;;;;;;7.38;2.05;;;23.90;71.10;;;;;;5064399;28;20016;-71
2022/07/01 05:16:03;;;;;;;5.93;2.10;;;24.00;71.50;;;;;;5063500;28;20040;-72
2022/07/01 05:23:58;;;;;;;5.28;2.22;;;24.30;71.30;;;;;;5062459;28;20539;-71
2022/07/01 05:26:25;;;;;;;8.43;2.63;;;24.30;70.40;;;;;;5063847;28;20025;-70
2022/07/01 05:28:53;;;;;;;5.30;1.75;;;24.40;69.50;;;;;;5062488;28;20025;-71
2022/07/01 05:31:19;;;;;;;3.38;2.10;;;24.40;69.30;;;;;;5062603;28;20020;-69
2022/07/01 05:33:46;;;;;;;2.42;1.90;;;24.40;68.80;;;;;;5063747;28;20112;-72
2022/07/01 05:36:11;;;;;;;6.43;2.40;;;24.50;69.10;;;;;;5060901;28;20032;-70
2022/07/01 05:38:37;;;;;;;6.15;2.38;;;24.50;69.10;;;;;;5064000;28;20029;-72
2022/07/01 05:41:03;;;;;;;4.60;1.90;;;24.50;68.10;;;;;;5063424;28;20021;-70
2022/07/01 05:43:30;;;;;;;4.25;2.17;;;24.50;68.50;;;;;;5062807;28;21083;-71
2022/07/01 05:45:56;;;;;;;8.50;1.90;;;24.50;69.20;;;;;;5059785;28;20535;-70
2022/07/01 05:48:22;;;;;;;5.05;2.10;;;24.60;68.80;;;;;;5059679;28;20033;-72
2022/07/01 05:50:49;;;;;;;6.65;2.00;;;24.60;68.90;;;;;;5060125;28;20359;-71
2022/07/01 05:53:15;;;;;;;4.10;2.13;;;24.60;67.70;;;;;;5057930;28;20059;-72
2022/07/01 05:55:41;;;;;;;5.18;2.05;;;24.70;68.30;;;;;;5056625;28;20037;-69
2022/07/01 05:58:08;;;;;;;4.65;2.72;;;24.70;68.70;;;;;;5053328;28;20025;-71
2022/07/01 06:00:34;;;;;;;4.82;2.60;;;24.70;67.60;;;;;;5055485;28;20013;-71
2022/07/01 06:03:00;;;;;;;3.10;2.05;;;24.70;68.00;;;;;;5043673;28;20032;-73
2022/07/01 06:05:26;;;;;;;4.40;2.40;;;24.80;68.40;;;;;;5041856;28;20013;-70
2022/07/01 06:07:52;;;;;;;7.15;2.13;;;24.80;67.80;;;;;;5054923;28;20039;-71
2022/07/01 06:10:18;;;;;;;5.13;2.33;;;24.80;68.40;;;;;;5062184;28;20024;-71
2022/07/01 06:12:44;;;;;;;3.88;2.22;;;24.90;68.50;;;;;;5062073;28;20015;-70
2022/07/01 06:15:11;;;;;;;3.13;2.30;;;25.00;68.10;;;;;;5060226;28;20048;-72
2022/07/01 06:17:39;;;;;;;5.45;2.35;;;25.10;68.00;;;;;;5055741;28;20024;-70
2022/07/01 06:20:07;;;;;;;4.07;2.33;;;25.10;67.10;;;;;;5056492;28;20036;-72
2022/07/01 06:22:34;;;;;;;5.50;2.05;;;25.20;66.60;;;;;;5054604;28;20401;-71
2022/07/01 06:25:00;;;;;;;5.15;2.08;;;25.20;66.70;;;;;;5056835;28;20029;-72
2022/07/01 06:27:26;;;;;;;4.95;2.20;;;25.30;67.00;;;;;;5060169;28;20043;-71
2022/07/01 06:29:52;;;;;;;3.35;2.25;;;25.30;66.20;;;;;;5063473;28;20029;-71
2022/07/01 06:32:19;;;;;;;5.32;2.70;;;25.40;65.70;;;;;;5061611;28;20025;-70
2022/07/01 06:34:45;;;;;;;2.83;1.75;;;25.40;64.80;;;;;;5062113;28;20013;-70
2022/07/01 06:37:11;;;;;;;2.33;2.00;;;25.50;64.70;;;;;;5059132;28;20159;-72
2022/07/01 06:39:37;;;;;;;7.28;2.40;;;25.50;64.70;;;;;;5061067;28;20095;-71
2022/07/01 06:42:03;;;;;;;3.17;2.30;;;25.60;63.40;;;;;;5058539;28;20025;-71
2022/07/01 06:44:29;;;;;;;5.88;1.92;;;25.60;62.60;;;;;;5053369;28;20021;-69
2022/07/01 06:46:54;;;;;;;5.53;2.25;;;25.70;64.60;;;;;;5050259;28;20585;-70
2022/07/01 06:49:20;;;;;;;2.85;2.22;;;25.70;63.40;;;;;;5048825;28;20104;-69
2022/07/01 06:51:46;;;;;;;4.57;2.33;;;25.80;60.60;;;;;;5048934;28;20036;-71
2022/07/01 06:54:12;;;;;;;3.78;1.92;;;25.80;61.10;;;;;;5046437;28;20109;-69
2022/07/01 06:56:38;;;;;;;1.95;1.58;;;25.80;62.20;;;;;;5034669;28;20102;-70
2022/07/01 06:59:04;;;;;;;4.40;1.88;;;25.90;63.80;;;;;;5047707;28;20027;-70
2022/07/01 07:01:29;;;;;;;4.63;2.80;;;26.00;62.80;;;;;;5039716;28;20076;-70
2022/07/01 07:03:55;;;;;;;4.60;1.80;;;26.10;61.30;;;;;;5032809;28;20021;-69
2022/07/01 07:06:21;;;;;;;3.55;2.20;;;26.20;62.20;;;;;;5033157;28;20030;-69
2022/07/01 07:08:48;;;;;;;3.58;1.90;;;26.20;60.70;;;;;;5032972;28;20091;-70
2022/07/01 07:11:14;;;;;;;5.57;1.98;;;26.30;59.20;;;;;;5032897;28;20021;-69
2022/07/01 07:13:41;;;;;;;2.33;1.65;;;26.40;61.10;;;;;;5032981;28;20053;-71
2022/07/01 07:16:07;;;;;;;2.75;1.50;;;26.50;60.30;;;;;;5032745;28;20025;-71
2022/07/01 07:18:34;;;;;;;2.33;1.65;;;26.60;62.20;;;;;;5031690;28;20360;-70
2022/07/01 07:21:00;;;;;;;2.38;1.70;;;26.60;60.10;;;;;;5032862;28;20033;-69
2022/07/01 07:23:26;;;;;;;9.43;2.20;;;26.60;59.70;;;;;;5033031;28;20017;-70
2022/07/01 07:25:52;;;;;;;2.03;1.60;;;26.60;59.50;;;;;;5032950;28;20060;-69
2022/07/01 07:28:18;;;;;;;4.03;2.10;;;26.70;61.10;;;;;;5032815;28;20048;-69
2022/07/01 07:30:43;;;;;;;4.30;2.17;;;26.70;58.10;;;;;;5031365;28;20384;-70
2022/07/01 07:33:10;;;;;;;6.65;2.05;;;26.70;58.40;;;;;;5032700;28;20518;-70
2022/07/01 07:35:36;;;;;;;3.00;1.80;;;26.70;59.00;;;;;;5032378;28;20571;-69
2022/07/01 07:38:01;;;;;;;4.25;2.47;;;26.70;58.00;;;;;;5031442;28;20109;-68
2022/07/01 07:40:27;;;;;;;2.67;1.70;;;26.70;56.60;;;;;;5032623;28;20022;-70
2022/07/01 07:42:53;;;;;;;1.63;1.52;;;26.60;58.20;;;;;;5031362;28;20029;-70
2022/07/01 07:45:19;;;;;;;1.85;1.50;;;26.70;59.20;;;;;;5031423;28;20047;-70
2022/07/01 07:47:48;;;;;;;3.05;1.85;;;26.80;60.00;;;;;;5032339;28;20100;-71
2022/07/01 07:50:14;;;;;;;1.90;1.70;;;26.90;59.00;;;;;;5032449;28;20104;-72
2022/07/01 07:52:42;;;;;;;2.88;2.25;;;27.10;60.00;;;;;;5032589;28;20010;-72
2022/07/01 07:55:09;;;;;;;5.22;2.00;;;27.20;57.70;;;;;;5030987;28;20125;-72
2022/07/01 07:57:39;;;;;;;4.55;2.10;;;27.30;56.70;;;;;;5031335;28;20029;-70
2022/07/01 08:00:08;;;;;;;3.45;1.75;;;27.40;57.60;;;;;;5031290;28;20029;-71
2022/07/01 08:02:34;;;;;;;4.47;2.20;;;27.50;59.10;;;;;;5032198;28;20022;-72
2022/07/01 08:05:00;;;;;;;7.35;2.58;;;27.60;56.60;;;;;;5032544;28;20495;-70
2022/07/01 08:07:25;;;;;;;6.82;2.20;;;27.80;56.60;;;;;;5032483;28;20049;-71
2022/07/01 08:09:51;;;;;;;8.35;2.20;;;27.80;56.20;;;;;;5032335;28;20029;-71
2022/07/01 08:12:18;;;;;;;2.85;2.22;;;27.90;56.20;;;;;;5032681;28;20356;-70
2022/07/01 08:14:44;;;;;;;4.35;2.05;;;27.90;55.80;;;;;;5032350;28;20100;-71
2022/07/01 08:17:10;;;;;;;3.75;2.00;;;27.90;55.10;;;;;;5032398;28;20099;-70
2022/07/01 08:19:36;;;;;;;3.83;2.00;;;28.00;57.10;;;;;;5031152;28;20383;-70
2022/07/01 08:22:02;;;;;;;7.22;1.70;;;28.10;57.60;;;;;;5031279;28;20021;-70
2022/07/01 08:24:27;;;;;;;4.60;2.13;;;28.30;58.50;;;;;;5031447;28;20486;-71
2022/07/01 08:26:53;;;;;;;5.63;2.20;;;28.30;54.50;;;;;;5032586;28;20029;-70
2022/07/01 08:29:19;;;;;;;3.40;2.60;;;28.40;55.70;;;;;;5032494;28;20060;-71
2022/07/01 08:31:45;;;;;;;5.18;2.70;;;28.40;53.90;;;;;;5032594;28;20037;-70
2022/07/01 08:34:11;;;;;;;4.25;2.17;;;28.40;55.00;;;;;;5031141;28;20033;-69
2022/07/01 08:36:37;;;;;;;3.50;2.10;;;28.30;54.70;;;;;;5032554;28;20025;-70
2022/07/01 08:39:03;;;;;;;12.52;2.28;;;28.30;56.00;;;;;;5031300;28;20031;-69
2022/07/01 08:41:30;;;;;;;4.15;2.40;;;28.30;55.00;;;;;;5031202;28;20022;-69
2022/07/01 08:43:55;;;;;;;4.13;2.35;;;28.20;54.20;;;;;;5036115;28;20471;-71
2022/07/01 08:46:22;;;;;;;3.28;2.08;;;28.10;54.30;;;;;;5034919;28;20026;-71
2022/07/01 08:48:49;;;;;;;6.38;2.47;;;28.00;55.30;;;;;;5036118;28;20489;-70
2022/07/01 08:51:15;;;;;;;7.95;2.30;;;28.00;55.00;;;;;;5034863;28;20148;-71
2022/07/01 08:53:40;;;;;;;6.35;2.05;;;27.90;55.10;;;;;;5034716;28;20041;-70
2022/07/01 08:58:51;;;;;;;2.75;2.05;;;28.00;56.50;;;;;;5036056;28;20120;-70
2022/07/01 09:01:23;;;;;;;5.65;2.25;;;28.00;56.10;;;;;;5034693;28;20021;-71
2022/07/01 09:03:52;;;;;;;6.80;2.30;;;28.00;55.60;;;;;;5034613;28;20064;-70
2022/07/01 09:06:29;;;;;;;6.15;2.42;;;28.10;56.10;;;;;;5034614;28;20144;-71
2022/07/01 09:09:09;;;;;;;5.20;2.20;;;28.20;57.30;;;;;;5035855;28;20029;-69
2022/07/01 09:11:35;;;;;;;5.55;2.72;;;28.40;57.90;;;;;;5035742;28;20034;-69
2022/07/01 09:14:15;;;;;;;5.78;2.35;;;28.60;56.40;;;;;;5035780;28;20081;-70
2022/07/01 09:16:42;;;;;;;6.07;2.40;;;28.80;56.90;;;;;;5035479;28;20108;-69
2022/07/01 09:19:08;;;;;;;3.80;2.13;;;29.00;54.30;;;;;;5035547;28;20479;-70
2022/07/01 09:21:34;;;;;;;3.58;2.22;;;29.20;56.00;;;;;;5034285;28;20032;-70
2022/07/01 09:24:03;;;;;;;6.10;2.75;;;29.30;55.00;;;;;;5035471;28;20021;-68
2022/07/01 09:26:30;;;;;;;2.78;2.50;;;29.40;55.00;;;;;;5035412;28;20026;-69
2022/07/01 09:28:57;;;;;;;2.75;2.10;;;29.50;56.10;;;;;;5034092;28;20026;-71
2022/07/01 09:31:33;;;;;;;7.95;2.85;;;29.60;56.50;;;;;;5035303;28;20030;-69
2022/07/01 09:34:08;;;;;;;4.65;2.50;;;29.60;54.70;;;;;;5033950;28;20025;-69
2022/07/01 09:36:41;;;;;;;4.43;3.10;;;29.70;54.20;;;;;;5035207;28;20026;-71
2022/07/01 09:39:07;;;;;;;2.75;2.55;;;29.70;53.30;;;;;;5035323;28;20049;-70
2022/07/01 09:41:37;;;;;;;5.05;2.88;;;29.70;54.20;;;;;;5035144;28;20083;-70
2022/07/01 09:44:07;;;;;;;5.30;2.58;;;29.80;53.50;;;;;;5035082;28;20549;-70
2022/07/01 09:46:33;;;;;;;4.13;2.90;;;30.00;56.00;;;;;;5033813;28;20060;-69
2022/07/01 09:49:00;;;;;;;7.25;2.55;;;30.10;52.50;;;;;;5035046;28;20025;-70
2022/07/01 09:51:26;;;;;;;2.88;2.53;;;30.20;54.60;;;;;;5035046;28;20021;-71
2022/07/01 09:53:52;;;;;;;5.13;2.90;;;30.30;53.90;;;;;;5033665;28;20113;-70
2022/07/01 09:56:19;;;;;;;8.02;2.90;;;30.30;51.10;;;;;;5033384;28;20128;-69
2022/07/01 09:58:45;;;;;;;6.53;2.53;;;30.40;54.10;;;;;;5035159;28;20124;-69
2022/07/01 10:01:14;;;;;;;3.05;2.45;;;30.30;52.40;;;;;;5034838;28;20147;-70
2022/07/01 10:03:41;;;;;;;3.20;2.38;;;30.40;54.30;;;;;;5034756;28;20045;-70
2022/07/01 10:06:07;;;;;;;3.40;2.95;;;30.40;53.90;;;;;;5033447;28;20025;-71
2022/07/01 10:08:44;;;;;;;3.67;2.50;;;30.40;53.00;;;;;;5034647;28;20052;-72
2022/07/01 10:11:26;;;;;;;7.35;2.40;;;30.50;53.40;;;;;;5034644;28;20056;-70
2022/07/01 10:13:53;;;;;;;4.93;2.67;;;30.70;53.60;;;;;;5033077;28;20026;-69
2022/07/01 10:16:20;;;;;;;7.18;2.95;;;30.80;54.30;;;;;;5034257;28;20360;-71
2022/07/01 10:18:46;;;;;;;4.80;2.92;;;30.80;52.80;;;;;;5034447;28;20022;-72
2022/07/01 10:21:30;;;;;;;9.30;2.92;;;30.90;52.20;;;;;;5034301;28;20017;-71
2022/07/01 10:24:15;;;;;;;3.28;2.47;;;31.00;54.30;;;;;;5034352;28;20096;-70
2022/07/01 10:26:42;;;;;;;2.53;2.33;;;31.10;53.50;;;;;;5034151;28;20363;-70
2022/07/01 10:29:30;;;;;;;4.53;3.30;;;31.20;55.10;;;;;;5034147;28;20025;-72
2022/07/01 10:32:26;;;;;;;3.58;2.63;;;31.30;51.60;;;;;;5034084;28;20032;-72
2022/07/01 10:35:06;;;;;;;4.75;2.80;;;31.30;53.50;;;;;;5032761;28;20029;-69
2022/07/01 10:37:32;;;;;;;6.10;2.40;;;31.50;53.40;;;;;;5034200;28;20033;-69
2022/07/01 10:40:00;;;;;;;5.10;2.45;;;31.50;54.20;;;;;;5032545;28;20056;-69
2022/07/01 10:42:36;;;;;;;3.40;2.40;;;31.60;52.70;;;;;;5033900;28;20014;-72
2022/07/01 10:45:11;;;;;;;6.55;2.67;;;31.70;53.20;;;;;;5033908;28;20430;-71
2022/07/01 10:47:38;;;;;;;4.95;2.33;;;31.70;48.90;;;;;;5032432;28;20018;-72
2022/07/01 10:50:04;;;;;;;2.28;2.08;;;31.70;52.30;;;;;;5032400;28;20541;-70
2022/07/01 10:52:30;;;;;;;8.30;3.00;;;31.80;53.00;;;;;;5033716;28;20033;-72
2022/07/01 10:55:00;;;;;;;4.60;2.45;;;31.70;50.10;;;;;;5033322;28;20021;-70
2022/07/01 10:57:39;;;;;;;3.38;2.40;;;31.90;53.40;;;;;;5033673;28;20017;-70
2022/07/01 11:00:04;;;;;;;4.05;2.30;;;31.90;51.30;;;;;;5032318;28;20091;-71
2022/07/01 11:02:31;;;;;;;4.05;2.35;;;32.00;52.10;;;;;;5033421;28;20451;-70
2022/07/01 11:05:01;;;;;;;3.58;3.05;;;32.00;51.90;;;;;;5031604;28;20033;-71
2022/07/01 11:07:29;;;;;;;4.70;2.50;;;32.00;49.40;;;;;;5032504;28;20032;-69
2022/07/01 11:09:56;;;;;;;2.90;2.13;;;32.00;49.30;;;;;;5033500;28;20383;-70
2022/07/01 11:12:23;;;;;;;3.22;2.53;;;32.00;51.10;;;;;;5033394;28;20096;-69
2022/07/01 11:14:50;;;;;;;5.25;2.78;;;32.00;51.40;;;;;;5033281;28;20022;-69
2022/07/01 11:17:16;;;;;;;3.00;2.42;;;31.90;47.40;;;;;;5033410;28;20029;-70
2022/07/01 11:19:56;;;;;;;9.18;2.70;;;31.90;48.20;;;;;;5033351;28;20537;-71
2022/07/01 11:22:27;;;;;;;3.30;2.28;;;31.90;50.50;;;;;;5032211;28;20083;-69
2022/07/01 11:24:58;;;;;;;2.97;2.33;;;32.00;49.10;;;;;;5033273;28;20097;-70
2022/07/01 11:27:27;;;;;;;2.67;1.98;;;32.00;49.80;;;;;;5033312;28;20406;-72
2022/07/01 11:29:54;;;;;;;3.15;2.70;;;32.10;52.60;;;;;;5033100;28;20025;-68
2022/07/01 11:32:24;;;;;;;5.45;2.60;;;32.20;51.60;;;;;;5033165;28;20018;-71
2022/07/01 11:34:50;;;;;;;3.25;2.58;;;32.20;49.50;;;;;;5033091;28;20490;-71
2022/07/01 11:40:10;;;;;;;2.80;2.30;;;32.20;51.20;;;;;;5033086;28;20037;-68
2022/07/01 11:42:36;;;;;;;5.10;2.53;;;32.10;47.80;;;;;;5033049;28;20033;-69
2022/07/01 11:45:03;;;;;;;5.22;2.70;;;32.10;50.60;;;;;;5033002;28;20026;-71
2022/07/01 11:47:29;;;;;;;4.38;2.00;;;32.00;48.80;;;;;;5032967;28;20021;-70
2022/07/01 11:49:56;;;;;;;6.45;2.60;;;32.10;51.90;;;;;;5032752;28;20029;-70
2022/07/01 11:52:24;;;;;;;2.50;2.00;;;32.10;47.70;;;;;;5032888;28;20021;-70
2022/07/01 11:54:53;;;;;;;4.32;2.15;;;32.20;50.80;;;;;;5032591;28;20030;-68
2022/07/01 11:57:24;;;;;;;3.95;2.67;;;32.30;49.50;;;;;;5032713;28;20075;-68
2022/07/01 11:59:52;;;;;;;2.80;2.33;;;32.20;47.20;;;;;;5032705;28;20108;-68
2022/07/01 12:02:21;;;;;;;4.45;2.80;;;32.30;49.60;;;;;;5032610;28;20497;-71
2022/07/01 12:04:48;;;;;;;3.58;2.35;;;32.30;49.20;;;;;;5031307;28;20071;-70
2022/07/01 12:07:15;;;;;;;4.28;2.20;;;32.40;51.60;;;;;;5032755;28;20036;-71
2022/07/01 12:09:41;;;;;;;2.58;2.28;;;32.40;49.40;;;;;;5032761;28;20029;-68
2022/07/01 12:12:15;;;;;;;5.15;2.30;;;32.50;51.60;;;;;;5032775;28;20113;-69
2022/07/01 12:14:41;;;;;;;4.07;2.85;;;32.60;50.50;;;;;;5032695;28;20078;-70
2022/07/01 12:17:08;;;;;;;2.35;1.95;;;32.80;48.50;;;;;;5032141;28;20482;-69
2022/07/01 12:19:44;;;;;;;3.97;2.05;;;32.90;51.40;;;;;;5035436;28;20049;-70
2022/07/01 12:22:12;;;;;;;8.70;2.25;;;33.10;50.50;;;;;;5036646;28;20101;-71
2022/07/01 12:24:39;;;;;;;2.60;1.95;;;33.20;46.10;;;;;;5035282;28;20056;-68
2022/07/01 12:27:06;;;;;;;2.70;2.13;;;33.20;50.00;;;;;;5035340;28;20147;-69
2022/07/01 12:29:48;;;;;;;3.33;2.28;;;33.10;48.40;;;;;;5036839;28;20029;-68
2022/07/01 12:32:22;;;;;;;3.33;2.10;;;33.10;48.70;;;;;;5036411;28;20091;-70
2022/07/01 12:34:54;;;;;;;2.05;1.95;;;33.10;48.60;;;;;;5036320;28;20105;-71
2022/07/01 12:37:28;;;;;;;1.83;1.73;;;33.20;50.50;;;;;;5035103;28;20026;-69
2022/07/01 12:40:03;;;;;;;7.22;2.08;;;33.20;46.40;;;;;;5036123;28;20017;-71
2022/07/01 12:42:39;;;;;;;3.05;2.03;;;33.10;46.90;;;;;;5036400;28;20017;-71
2022/07/01 12:45:07;;;;;;;2.63;2.00;;;33.10;48.30;;;;;;5036222;28;20099;-70
2022/07/01 12:47:38;;;;;;;3.30;2.22;;;33.00;43.90;;;;;;5036237;28;20037;-71
2022/07/01 12:50:10;;;;;;;2.55;2.15;;;32.80;43.90;;;;;;5036019;28;20486;-70
2022/07/01 12:52:41;;;;;;;3.38;2.08;;;32.80;48.30;;;;;;5036117;28;20029;-69
2022/07/01 12:55:20;;;;;;;3.85;2.05;;;32.80;50.30;;;;;;5035714;28;20041;-71
2022/07/01 12:57:51;;;;;;;2.38;1.73;;;32.70;48.30;;;;;;5036247;28;20025;-69
2022/07/01 13:00:18;;;;;;;2.60;2.10;;;32.80;50.00;;;;;;5035959;28;20025;-70
2022/07/01 13:02:45;;;;;;;3.83;1.85;;;32.80;46.90;;;;;;5034510;28;20052;-70
2022/07/01 13:05:11;;;;;;;4.10;1.70;;;32.80;45.40;;;;;;5035856;28;20030;-69